createdAt,value
2022-09-01T00:01:51.107Z,92.34
2022-09-01T00:04:39.615Z,92.50
2022-09-01T00:07:32.498Z,92.77
2022-09-01T00:10:19.906Z,93.00
2022-09-01T00:13:08.313Z,93.46
2022-09-01T00:15:56.060Z,92.86
2022-09-01T00:18:46.904Z,91.62
2022-09-01T00:21:35.159Z,91.39
2022-09-01T00:24:25.105Z,91.38
2022-09-01T00:27:12.960Z,91.35
2022-09-01T00:30:01.049Z,91.65
2022-09-01T00:32:48.649Z,91.64
2022-09-01T00:35:37.402Z,92.24
2022-09-01T00:38:25.081Z,93.15
2022-09-01T00:41:13.193Z,94.05
2022-09-01T00:44:05.369Z,94.34
2022-09-01T00:46:55.943Z,94.27
2022-09-01T00:49:43.215Z,93.67
2022-09-01T00:52:32.923Z,92.89
2022-09-01T00:55:26.288Z,92.43
2022-09-01T00:58:19.632Z,91.94
2022-09-01T01:01:03.648Z,92.23
2022-09-01T01:03:51.152Z,92.03
2022-09-01T01:06:39.490Z,92.12
2022-09-01T01:09:28.912Z,91.82
2022-09-01T01:12:17.696Z,91.86
2022-09-01T01:15:07.240Z,91.95
2022-09-01T01:17:54.824Z,91.96
2022-09-01T01:21:00.425Z,91.95
2022-09-01T01:23:51.055Z,92.18
2022-09-01T01:26:38.352Z,92.83
2022-09-01T01:29:28.352Z,93.15
2022-09-01T01:32:15.864Z,94.56
2022-09-01T01:35:04.943Z,93.89
2022-09-01T01:37:52.256Z,93.10
2022-09-01T01:40:41.251Z,92.65
2022-09-01T01:43:29.282Z,92.19
2022-09-01T01:46:18.378Z,92.22
2022-09-01T01:49:06.119Z,92.37
2022-09-01T01:51:56.383Z,92.35
2022-09-01T01:54:46.383Z,92.78
2022-09-01T01:57:35.159Z,92.82
2022-09-01T02:00:30.268Z,92.70
2022-09-01T02:03:20.099Z,92.46
2022-09-01T02:06:10.767Z,92.48
2022-09-01T02:08:59.194Z,92.64
2022-09-01T02:11:46.711Z,92.76
2022-09-01T02:14:33.782Z,92.58
2022-09-01T02:17:21.482Z,92.74
2022-09-01T02:20:09.064Z,92.91
2022-09-01T02:22:56.912Z,93.03
2022-09-01T02:26:13.998Z,93.04
2022-09-01T02:28:37.616Z,92.91
2022-09-01T02:31:27.416Z,92.67
2022-09-01T02:34:15.784Z,92.30
2022-09-01T02:37:02.841Z,91.70
2022-09-01T02:39:50.216Z,91.32
2022-09-01T02:42:40.664Z,90.85
2022-09-01T02:45:32.175Z,90.36
2022-09-01T02:48:21.712Z,89.82
2022-09-01T02:51:12.488Z,89.77
2022-09-01T02:54:00.223Z,89.38
2022-09-01T02:56:48.182Z,88.83
2022-09-01T02:59:38.712Z,88.49
2022-09-01T03:02:27.056Z,88.27
2022-09-01T03:05:16.471Z,87.92
2022-09-01T03:08:07.569Z,87.61
2022-09-01T03:10:54.863Z,87.72
2022-09-01T03:13:42.888Z,87.81
2022-09-01T03:16:33.519Z,87.97
2022-09-01T03:19:21.165Z,88.12
2022-09-01T03:22:08.408Z,88.36
2022-09-01T03:24:56.575Z,88.87
2022-09-01T03:27:44.034Z,89.19
2022-09-01T03:30:34.120Z,89.58
2022-09-01T03:33:22.729Z,89.78
2022-09-01T03:36:15.270Z,90.16
2022-09-01T03:39:02.447Z,90.90
2022-09-01T03:41:50.137Z,90.92
2022-09-01T03:44:39.330Z,90.93
2022-09-01T03:47:27.489Z,90.44
2022-09-01T03:50:22.367Z,90.03
2022-09-01T03:53:10.000Z,89.60
2022-09-01T03:55:59.760Z,89.52
2022-09-01T03:58:47.920Z,89.74
2022-09-01T04:01:37.140Z,90.12
2022-09-01T04:04:24.815Z,90.33
2022-09-01T04:07:15.537Z,90.53
2022-09-01T04:10:01.460Z,90.63
2022-09-01T04:12:48.671Z,90.67
2022-09-01T04:15:38.472Z,90.75
2022-09-01T04:18:26.687Z,90.65
2022-09-01T04:21:14.295Z,91.11
2022-09-01T04:24:02.969Z,91.67
2022-09-01T04:26:50.264Z,92.06
2022-09-01T04:29:38.504Z,92.40
2022-09-01T04:32:27.600Z,92.51
2022-09-01T04:35:16.407Z,92.45
2022-09-01T04:38:04.344Z,92.15
2022-09-01T04:40:52.784Z,91.91
2022-09-01T04:43:40.193Z,91.91
2022-09-01T04:46:30.583Z,91.49
2022-09-01T04:49:21.754Z,91.01
2022-09-01T04:52:08.810Z,90.66
2022-09-01T04:54:56.095Z,90.88
2022-09-01T04:57:47.176Z,90.88
2022-09-01T05:00:34.248Z,90.43
2022-09-01T05:03:23.720Z,90.09
2022-09-01T05:06:19.907Z,89.54
2022-09-01T05:09:09.376Z,89.45
2022-09-01T05:11:58.200Z,89.18
2022-09-01T05:14:48.977Z,88.64
2022-09-01T05:17:38.168Z,87.86
2022-09-01T05:20:27.633Z,87.24
2022-09-01T05:23:16.848Z,86.85
2022-09-01T05:26:05.552Z,86.10
2022-09-01T05:28:55.455Z,85.60
2022-09-01T05:31:45.412Z,85.10
2022-09-01T05:34:35.415Z,84.13
2022-09-01T05:37:23.561Z,83.60
2022-09-01T05:40:13.199Z,83.55
2022-09-01T05:43:01.178Z,83.66
2022-09-01T05:46:05.683Z,83.44
2022-09-01T05:48:40.438Z,82.75
2022-09-01T05:51:44.288Z,82.58
2022-09-01T05:54:23.441Z,81.55
2022-09-01T05:57:33.159Z,80.74
2022-09-01T06:00:00.595Z,80.59
2022-09-01T06:02:49.174Z,80.26
2022-09-01T06:05:37.497Z,80.48
2022-09-01T06:08:28.056Z,79.94
2022-09-01T06:11:17.903Z,79.56
2022-09-01T06:14:06.176Z,78.36
2022-09-01T06:16:54.377Z,78.09
2022-09-01T06:19:42.863Z,77.54
2022-09-01T06:22:30.919Z,76.72
2022-09-01T06:25:18.811Z,74.71
2022-09-01T06:28:08.120Z,73.82
2022-09-01T06:30:57.456Z,73.18
2022-09-01T06:33:47.697Z,72.94
2022-09-01T06:36:39.344Z,71.97
2022-09-01T06:39:27.104Z,71.64
2022-09-01T06:42:15.736Z,71.09
2022-09-01T06:45:03.799Z,71.02
2022-09-01T06:47:57.759Z,70.48
2022-09-01T06:53:32.805Z,67.91
2022-09-01T06:56:21.073Z,67.78
2022-09-01T06:59:08.665Z,67.08
2022-09-01T07:04:46.120Z,65.93
2022-09-01T07:10:26.426Z,65.59
2022-09-01T07:13:18.374Z,64.93
2022-09-01T07:18:59.016Z,62.65
2022-09-01T07:24:35.973Z,60.34
2022-09-01T07:27:25.591Z,56.91
2022-09-01T07:30:14.369Z,56.16
2022-09-01T07:39:48.431Z,55.12
2022-09-01T07:42:59.051Z,66.76
2022-09-01T07:44:23.551Z,53.81
2022-09-01T07:47:20.298Z,53.40
2022-09-01T07:52:50.488Z,52.52
2022-09-01T07:55:44.135Z,50.92
2022-09-01T07:58:31.913Z,50.09
2022-09-01T08:01:22.344Z,50.35
2022-09-01T08:04:09.657Z,47.46
2022-09-01T08:06:57.736Z,48.05
2022-09-01T08:09:45.185Z,47.14
2022-09-01T08:12:33.192Z,46.40
2022-09-01T08:18:10.630Z,45.16
2022-09-01T08:20:57.895Z,46.73
2022-09-01T08:23:45.296Z,47.12
2022-09-01T08:26:32.712Z,45.00
2022-09-01T08:29:20.098Z,43.38
2022-09-01T08:32:07.505Z,41.95
2022-09-01T08:34:55.241Z,41.80
2022-09-01T08:37:43.513Z,39.95
2022-09-01T08:40:31.476Z,40.08
2022-09-01T08:43:34.168Z,40.55
2022-09-01T08:46:25.116Z,40.89
2022-09-01T08:49:25.683Z,37.56
2022-09-01T08:52:30.284Z,36.82
2022-09-01T08:55:30.208Z,38.96
2022-09-01T08:58:19.111Z,38.43
2022-09-01T09:01:13.675Z,38.26
2022-09-01T09:04:25.720Z,38.75
2022-09-01T09:07:19.161Z,40.56
2022-09-01T09:10:24.173Z,40.60
2022-09-01T09:16:21.659Z,38.12
2022-09-01T09:19:11.977Z,37.59
2022-09-01T09:22:02.014Z,37.55
2022-09-01T09:25:17.430Z,37.22
2022-09-01T09:28:04.482Z,37.93
2022-09-01T09:30:51.886Z,35.83
2022-09-01T09:33:52.107Z,33.68
2022-09-01T09:36:38.254Z,34.45
2022-09-01T09:39:25.625Z,34.48
2022-09-01T09:42:16.201Z,32.90
2022-09-01T09:45:04.496Z,35.72
2022-09-01T09:47:52.362Z,35.42
2022-09-01T09:50:43.032Z,34.65
2022-09-01T09:53:35.915Z,32.29
2022-09-01T09:56:25.752Z,33.33
2022-09-01T09:59:56.703Z,34.53
2022-09-01T10:02:27.886Z,33.92
2022-09-01T10:05:30.615Z,32.26
2022-09-01T10:08:37.575Z,32.51
2022-09-01T10:11:42.172Z,33.39
2022-09-01T10:14:52.207Z,34.72
2022-09-01T10:17:43.642Z,33.65
2022-09-01T10:20:30.880Z,34.42
2022-09-01T10:23:18.762Z,32.82
2022-09-01T10:26:20.952Z,33.34
2022-09-01T10:29:17.161Z,32.77
2022-09-01T10:32:31.309Z,34.20
2022-09-01T10:34:59.670Z,32.30
2022-09-01T10:37:48.425Z,32.47
2022-09-01T10:40:43.376Z,31.10
2022-09-01T10:43:37.465Z,31.33
2022-09-01T10:46:49.408Z,31.41
2022-09-01T10:49:27.809Z,32.59
2022-09-01T10:52:16.304Z,32.77
2022-09-01T10:55:04.904Z,31.78
2022-09-01T11:01:13.433Z,32.51
2022-09-01T11:04:00.737Z,33.54
2022-09-01T11:09:45.835Z,33.33
2022-09-01T11:12:42.038Z,32.33
2022-09-01T11:15:38.151Z,32.53
2022-09-01T11:18:31.491Z,33.21
2022-09-01T11:21:25.775Z,33.48
2022-09-01T11:24:42.782Z,33.36
2022-09-01T11:27:52.067Z,32.67
2022-09-01T11:30:55.556Z,33.04
2022-09-01T11:34:03.824Z,33.35
2022-09-01T11:37:01.273Z,32.68
2022-09-01T11:39:50.512Z,32.85
2022-09-01T11:42:46.603Z,33.11
2022-09-01T11:45:35.106Z,32.66
2022-09-01T11:48:22.697Z,33.28
2022-09-01T11:51:14.511Z,33.86
2022-09-01T11:54:00.844Z,33.21
2022-09-01T11:56:48.264Z,33.44
2022-09-01T11:59:36.991Z,34.96
2022-09-01T12:02:27.602Z,35.06
2022-09-01T12:05:30.214Z,35.63
2022-09-01T12:08:22.960Z,35.05
2022-09-01T12:11:13.841Z,34.31
2022-09-01T12:14:07.678Z,33.72
2022-09-01T12:17:05.353Z,33.07
2022-09-01T12:19:54.449Z,33.70
2022-09-01T12:22:43.688Z,33.76
2022-09-01T12:25:33.632Z,34.92
2022-09-01T12:28:21.104Z,35.03
2022-09-01T12:31:17.650Z,35.43
2022-09-01T12:34:04.996Z,33.34
2022-09-01T12:37:10.944Z,32.18
2022-09-01T12:40:00.838Z,32.43
2022-09-01T12:42:53.155Z,31.90
2022-09-01T12:45:48.240Z,32.09
2022-09-01T12:48:38.271Z,31.15
2022-09-01T12:51:31.019Z,32.80
2022-09-01T12:54:15.080Z,32.33
2022-09-01T12:57:02.476Z,31.78
2022-09-01T12:59:50.289Z,31.68
2022-09-01T13:02:46.230Z,30.19
2022-09-01T13:05:42.551Z,29.48
2022-09-01T13:08:37.782Z,29.29
2022-09-01T13:11:25.399Z,28.68
2022-09-01T13:14:13.375Z,27.96
2022-09-01T13:17:01.385Z,26.95
2022-09-01T13:19:48.512Z,25.94
2022-09-01T13:22:37.519Z,26.83
2022-09-01T13:25:25.343Z,28.65
2022-09-01T13:28:13.758Z,29.18
2022-09-01T13:34:10.791Z,24.94
2022-09-01T13:36:46.084Z,24.70
2022-09-01T13:39:32.639Z,22.92
2022-09-01T13:42:20.313Z,22.78
2022-09-01T13:45:08.224Z,22.98
2022-09-01T13:51:19.321Z,23.22
2022-09-01T13:53:38.506Z,22.42
2022-09-01T13:56:26.282Z,23.06
2022-09-01T13:59:13.656Z,22.66
2022-09-01T14:02:01.860Z,21.85
2022-09-01T14:04:49.403Z,21.25
2022-09-01T14:07:37.675Z,20.27
2022-09-01T14:10:25.831Z,19.93
2022-09-01T14:13:14.096Z,20.72
2022-09-01T14:16:02.130Z,20.20
2022-09-01T14:18:49.536Z,19.11
2022-09-01T14:21:37.584Z,18.93
2022-09-01T14:24:27.000Z,20.82
2022-09-01T14:27:14.464Z,23.91
2022-09-01T14:30:01.737Z,27.15
2022-09-01T14:32:49.122Z,29.16
2022-09-01T14:35:39.071Z,29.23
2022-09-01T14:38:26.616Z,29.03
2022-09-01T14:41:23.970Z,27.72
2022-09-01T14:44:13.258Z,27.51
2022-09-01T14:47:00.818Z,26.99
2022-09-01T14:49:48.394Z,29.35
2022-09-01T14:52:37.282Z,31.89
2022-09-01T14:55:26.731Z,34.33
2022-09-01T14:58:14.879Z,36.24
2022-09-01T15:01:17.456Z,37.61
2022-09-01T15:03:51.121Z,39.06
2022-09-01T15:06:38.424Z,39.28
2022-09-01T15:09:25.448Z,35.87
2022-09-01T15:12:13.280Z,34.04
2022-09-01T15:15:02.091Z,36.76
2022-09-01T15:17:49.800Z,36.16
2022-09-01T15:20:48.836Z,36.80
2022-09-01T15:23:36.337Z,37.52
2022-09-01T15:26:24.128Z,35.47
2022-09-01T15:29:12.800Z,32.77
2022-09-01T15:32:01.803Z,29.92
2022-09-01T15:34:49.360Z,29.00
2022-09-01T15:37:37.522Z,29.20
2022-09-01T15:40:26.411Z,28.86
2022-09-01T15:43:13.848Z,28.77
2022-09-01T15:46:02.154Z,28.29
2022-09-01T15:48:50.680Z,27.62
2022-09-01T15:51:43.072Z,27.66
2022-09-01T15:54:30.988Z,30.40
2022-09-01T15:57:18.608Z,33.60
2022-09-01T16:00:06.658Z,36.00
2022-09-01T16:02:55.576Z,36.56
2022-09-01T16:05:43.905Z,34.60
2022-09-01T16:08:31.067Z,32.25
2022-09-01T16:11:18.258Z,30.55
2022-09-01T16:14:06.052Z,29.99
2022-09-01T16:17:11.600Z,29.48
2022-09-01T16:20:08.048Z,29.42
2022-09-01T16:23:10.705Z,30.00
2022-09-01T16:26:00.396Z,32.67
2022-09-01T16:28:53.361Z,35.42
2022-09-01T16:31:42.914Z,38.11
2022-09-01T16:34:30.904Z,40.39
2022-09-01T16:37:40.753Z,41.81
2022-09-01T16:40:41.212Z,42.59
2022-09-01T16:43:33.329Z,43.13
2022-09-01T16:46:29.911Z,43.84
2022-09-01T16:52:22.618Z,45.85
2022-09-01T16:55:15.736Z,47.29
2022-09-01T16:58:18.959Z,48.74
2022-09-01T17:01:10.252Z,49.89
2022-09-01T17:04:17.576Z,51.31
2022-09-01T17:07:08.449Z,52.07
2022-09-01T17:10:16.697Z,52.73
2022-09-01T17:15:55.696Z,54.29
2022-09-01T17:18:48.776Z,54.71
2022-09-01T17:21:49.930Z,55.24
2022-09-01T17:24:46.041Z,55.79
2022-09-01T17:27:36.593Z,56.37
2022-09-01T17:30:23.842Z,57.03
2022-09-01T17:33:18.654Z,57.40
2022-09-01T17:36:14.041Z,57.77
2022-09-01T17:39:26.512Z,58.46
2022-09-01T17:42:33.873Z,59.00
2022-09-01T17:45:33.466Z,63.40
2022-09-01T17:48:29.465Z,65.99
2022-09-01T17:51:40.619Z,66.21
2022-09-01T17:54:37.337Z,66.34
2022-09-01T17:57:38.929Z,66.64
2022-09-01T18:00:29.033Z,66.71
2022-09-01T18:03:43.290Z,67.05
2022-09-01T18:06:38.938Z,67.66
2022-09-01T18:09:28.282Z,68.14
2022-09-01T18:12:18.752Z,68.86
2022-09-01T18:15:12.369Z,69.39
2022-09-01T18:18:17.193Z,69.54
2022-09-01T18:23:51.618Z,70.79
2022-09-01T18:26:40.402Z,71.20
2022-09-01T18:29:30.680Z,71.85
2022-09-01T18:32:51.682Z,72.62
2022-09-01T18:35:47.993Z,73.25
2022-09-01T18:38:43.864Z,73.85
2022-09-01T18:41:55.374Z,74.84
2022-09-01T18:44:57.569Z,75.44
2022-09-01T18:48:04.282Z,76.05
2022-09-01T18:51:00.570Z,76.64
2022-09-01T18:53:54.048Z,77.40
2022-09-01T18:56:54.033Z,78.29
2022-09-01T18:59:59.859Z,78.91
2022-09-01T19:03:02.435Z,79.10
2022-09-01T19:06:18.257Z,79.00
2022-09-01T19:12:29.185Z,78.62
2022-09-01T19:15:35.161Z,78.81
2022-09-01T19:18:31.764Z,79.06
2022-09-01T19:21:24.817Z,79.56
2022-09-01T19:24:15.369Z,80.01
2022-09-01T19:27:03.935Z,80.45
2022-09-01T19:29:57.215Z,81.25
2022-09-01T19:32:44.984Z,81.75
2022-09-01T19:35:34.697Z,82.05
2022-09-01T19:38:27.902Z,82.43
2022-09-01T19:41:21.185Z,82.91
2022-09-01T19:44:28.360Z,83.48
2022-09-01T19:47:37.071Z,83.85
2022-09-01T19:50:28.991Z,84.23
2022-09-01T19:53:28.481Z,84.61
2022-09-01T19:56:21.760Z,84.61
2022-09-01T19:59:25.368Z,84.52
2022-09-01T20:02:35.143Z,84.74
2022-09-01T20:05:30.168Z,85.06
2022-09-01T20:08:26.840Z,85.26
2022-09-01T20:11:23.848Z,84.99
2022-09-01T20:14:34.271Z,84.79
2022-09-01T20:17:30.953Z,84.75
2022-09-01T20:20:26.927Z,84.57
2022-09-01T20:23:36.260Z,84.79
2022-09-01T20:26:33.104Z,84.54
2022-09-01T20:29:32.656Z,84.86
2022-09-01T20:32:24.896Z,84.95
2022-09-01T20:38:35.447Z,85.32
2022-09-01T20:41:27.984Z,85.78
2022-09-01T20:44:24.976Z,85.82
2022-09-01T20:47:14.154Z,86.27
2022-09-01T20:50:02.817Z,86.12
2022-09-01T20:52:55.946Z,86.67
2022-09-01T20:55:52.313Z,87.01
2022-09-01T20:58:44.974Z,87.00
2022-09-01T21:01:41.168Z,87.30
2022-09-01T21:05:01.784Z,87.50
2022-09-01T21:08:10.069Z,87.59
2022-09-01T21:11:03.128Z,87.63
2022-09-01T21:14:02.263Z,87.81
2022-09-01T21:17:10.633Z,87.99
2022-09-01T21:20:04.248Z,88.12
2022-09-01T21:22:55.666Z,88.54
2022-09-01T21:25:45.720Z,89.10
2022-09-01T21:28:33.296Z,89.16
2022-09-01T21:31:21.675Z,88.89
2022-09-01T21:34:08.976Z,88.84
2022-09-01T21:36:56.383Z,88.84
2022-09-01T21:39:44.248Z,88.76
2022-09-01T21:45:37.829Z,88.52
2022-09-01T21:48:25.399Z,88.35
2022-09-01T21:51:12.738Z,88.35
2022-09-01T21:54:00.137Z,88.33
2022-09-01T21:56:47.655Z,88.23
2022-09-01T21:59:35.320Z,88.27
2022-09-01T22:02:22.771Z,88.44
2022-09-01T22:05:12.064Z,88.66
2022-09-01T22:08:00.098Z,89.05
2022-09-01T22:10:49.785Z,89.28
2022-09-01T22:13:37.993Z,89.92
2022-09-01T22:16:25.698Z,90.47
2022-09-01T22:19:13.473Z,90.73
2022-09-01T22:22:00.952Z,91.05
2022-09-01T22:24:48.313Z,91.10
2022-09-01T22:27:35.672Z,90.34
2022-09-01T22:30:23.093Z,89.59
2022-09-01T22:33:13.141Z,89.44
2022-09-01T22:36:00.768Z,89.33
2022-09-01T22:38:48.072Z,89.12
2022-09-01T22:41:36.457Z,89.25
2022-09-01T22:44:24.408Z,89.35
2022-09-01T22:47:12.168Z,89.38
2022-09-01T22:49:59.440Z,89.19
2022-09-01T22:52:47.033Z,89.91
2022-09-01T22:55:39.383Z,90.09
2022-09-01T22:58:28.369Z,89.92
2022-09-01T23:01:19.254Z,89.99
2022-09-01T23:04:08.608Z,90.01
2022-09-01T23:06:56.280Z,90.89
2022-09-01T23:09:43.439Z,90.66
2022-09-01T23:12:31.241Z,90.48
2022-09-01T23:15:18.985Z,91.43
2022-09-01T23:18:06.305Z,91.90
2022-09-01T23:20:53.579Z,91.76
2022-09-01T23:23:42.271Z,92.08
2022-09-01T23:26:30.896Z,92.23
2022-09-01T23:29:18.464Z,92.55
2022-09-01T23:32:05.992Z,92.83
2022-09-01T23:34:53.760Z,93.18
2022-09-01T23:37:40.784Z,92.47
2022-09-01T23:40:28.233Z,92.15
2022-09-01T23:43:17.588Z,92.76
2022-09-01T23:46:05.785Z,93.04
2022-09-01T23:48:54.328Z,92.51
2022-09-01T23:51:42.626Z,91.58
2022-09-01T23:54:29.953Z,91.23
2022-09-01T23:57:17.465Z,91.49
